sensor_id;sensor_type;location;lat;lon;timestamp;P1;durP1;ratioP1;P2;durP2;ratioP2
77733;SDS011;66902;41.720;44.796;2023-09-19T00:02:32;5.70;;;5.10;;
77733;SDS011;66902;41.720;44.796;2023-09-19T00:05:09;4.80;;;3.80;;
77733;SDS011;66902;41.720;44.796;2023-09-19T00:07:44;6.20;;;4.20;;
77733;SDS011;66902;41.720;44.796;2023-09-19T00:10:20;8.50;;;4.70;;
77733;SDS011;66902;41.720;44.796;2023-09-19T00:12:55;6.30;;;4.00;;
77733;SDS011;66902;41.720;44.796;2023-09-19T00:15:29;4.70;;;3.80;;
77733;SDS011;66902;41.720;44.796;2023-09-19T00:18:08;4.20;;;3.50;;
77733;SDS011;66902;41.720;44.796;2023-09-19T00:20:43;6.20;;;4.10;;
77733;SDS011;66902;41.720;44.796;2023-09-19T00:23:22;7.60;;;4.80;;
77733;SDS011;66902;41.720;44.796;2023-09-19T00:26:00;6.60;;;4.70;;
77733;SDS011;66902;41.720;44.796;2023-09-19T00:28:34;8.00;;;4.80;;
77733;SDS011;66902;41.720;44.796;2023-09-19T00:31:10;6.70;;;4.30;;
77733;SDS011;66902;41.720;44.796;2023-09-19T00:33:44;5.40;;;3.90;;
77733;SDS011;66902;41.720;44.796;2023-09-19T00:36:18;6.60;;;4.80;;
77733;SDS011;66902;41.720;44.796;2023-09-19T00:38:53;6.90;;;4.00;;
77733;SDS011;66902;41.720;44.796;2023-09-19T00:41:28;7.40;;;3.80;;
77733;SDS011;66902;41.720;44.796;2023-09-19T00:44:02;6.70;;;3.00;;
77733;SDS011;66902;41.720;44.796;2023-09-19T00:46:36;4.60;;;3.90;;
77733;SDS011;66902;41.720;44.796;2023-09-19T00:49:11;11.40;;;3.90;;
77733;SDS011;66902;41.720;44.796;2023-09-19T00:51:45;7.00;;;3.90;;
77733;SDS011;66902;41.720;44.796;2023-09-19T00:54:21;4.40;;;2.60;;
77733;SDS011;66902;41.720;44.796;2023-09-19T00:56:55;3.30;;;2.70;;
77733;SDS011;66902;41.720;44.796;2023-09-19T00:59:29;2.10;;;1.70;;
77733;SDS011;66902;41.720;44.796;2023-09-19T01:02:05;2.90;;;1.30;;
77733;SDS011;66902;41.720;44.796;2023-09-19T01:04:41;3.90;;;1.30;;
77733;SDS011;66902;41.720;44.796;2023-09-19T01:07:16;1.40;;;1.10;;
77733;SDS011;66902;41.720;44.796;2023-09-19T01:09:51;2.50;;;1.10;;
77733;SDS011;66902;41.720;44.796;2023-09-19T01:12:30;4.80;;;1.30;;
77733;SDS011;66902;41.720;44.796;2023-09-19T01:15:10;3.90;;;2.00;;
77733;SDS011;66902;41.720;44.796;2023-09-19T01:17:48;4.00;;;1.30;;
77733;SDS011;66902;41.720;44.796;2023-09-19T01:20:29;5.10;;;1.50;;
77733;SDS011;66902;41.720;44.796;2023-09-19T01:23:13;3.70;;;1.90;;
77733;SDS011;66902;41.720;44.796;2023-09-19T01:29:00;1.60;;;1.30;;
77733;SDS011;66902;41.720;44.796;2023-09-19T01:31:44;2.20;;;1.40;;
77733;SDS011;66902;41.720;44.796;2023-09-19T01:34:20;3.40;;;1.20;;
77733;SDS011;66902;41.720;44.796;2023-09-19T01:36:57;3.80;;;2.00;;
77733;SDS011;66902;41.720;44.796;2023-09-19T01:39:32;12.30;;;1.30;;
77733;SDS011;66902;41.720;44.796;2023-09-19T01:42:09;2.30;;;1.40;;
77733;SDS011;66902;41.720;44.796;2023-09-19T01:44:51;2.70;;;1.30;;
77733;SDS011;66902;41.720;44.796;2023-09-19T01:47:28;6.50;;;2.10;;
77733;SDS011;66902;41.720;44.796;2023-09-19T01:50:10;3.00;;;1.40;;
77733;SDS011;66902;41.720;44.796;2023-09-19T01:52:50;2.10;;;1.20;;
77733;SDS011;66902;41.720;44.796;2023-09-19T01:55:30;2.70;;;1.40;;
77733;SDS011;66902;41.720;44.796;2023-09-19T01:58:21;3.90;;;1.40;;
77733;SDS011;66902;41.720;44.796;2023-09-19T02:00:58;5.70;;;2.10;;
77733;SDS011;66902;41.720;44.796;2023-09-19T02:03:33;4.80;;;1.90;;
77733;SDS011;66902;41.720;44.796;2023-09-19T02:06:09;2.30;;;1.80;;
77733;SDS011;66902;41.720;44.796;2023-09-19T02:08:48;2.80;;;1.50;;
77733;SDS011;66902;41.720;44.796;2023-09-19T02:11:24;2.00;;;1.50;;
77733;SDS011;66902;41.720;44.796;2023-09-19T02:13:59;2.40;;;1.30;;
77733;SDS011;66902;41.720;44.796;2023-09-19T02:16:34;4.80;;;1.70;;
77733;SDS011;66902;41.720;44.796;2023-09-19T02:19:08;5.60;;;1.70;;
77733;SDS011;66902;41.720;44.796;2023-09-19T02:21:43;5.30;;;1.40;;
77733;SDS011;66902;41.720;44.796;2023-09-19T02:24:19;1.90;;;1.30;;
77733;SDS011;66902;41.720;44.796;2023-09-19T02:26:56;2.90;;;1.20;;
77733;SDS011;66902;41.720;44.796;2023-09-19T02:29:31;1.40;;;1.20;;
77733;SDS011;66902;41.720;44.796;2023-09-19T02:32:06;4.00;;;1.40;;
77733;SDS011;66902;41.720;44.796;2023-09-19T02:34:41;2.20;;;1.40;;
77733;SDS011;66902;41.720;44.796;2023-09-19T02:37:15;4.00;;;1.20;;
77733;SDS011;66902;41.720;44.796;2023-09-19T02:39:50;3.10;;;1.40;;
77733;SDS011;66902;41.720;44.796;2023-09-19T02:42:25;2.70;;;1.30;;
77733;SDS011;66902;41.720;44.796;2023-09-19T02:44:59;2.40;;;1.10;;
77733;SDS011;66902;41.720;44.796;2023-09-19T02:47:34;2.40;;;1.40;;
77733;SDS011;66902;41.720;44.796;2023-09-19T02:50:09;2.60;;;0.90;;
77733;SDS011;66902;41.720;44.796;2023-09-19T02:52:44;1.30;;;0.70;;
77733;SDS011;66902;41.720;44.796;2023-09-19T02:55:19;3.20;;;1.70;;
77733;SDS011;66902;41.720;44.796;2023-09-19T02:57:53;2.80;;;1.60;;
77733;SDS011;66902;41.720;44.796;2023-09-19T03:00:28;4.30;;;2.00;;
77733;SDS011;66902;41.720;44.796;2023-09-19T03:03:03;1.90;;;1.60;;
77733;SDS011;66902;41.720;44.796;2023-09-19T03:05:38;2.50;;;1.60;;
77733;SDS011;66902;41.720;44.796;2023-09-19T03:08:19;2.10;;;1.60;;
77733;SDS011;66902;41.720;44.796;2023-09-19T03:10:53;7.70;;;1.50;;
77733;SDS011;66902;41.720;44.796;2023-09-19T03:13:27;3.10;;;1.70;;
77733;SDS011;66902;41.720;44.796;2023-09-19T03:16:01;2.90;;;2.00;;
77733;SDS011;66902;41.720;44.796;2023-09-19T03:18:35;3.10;;;1.80;;
77733;SDS011;66902;41.720;44.796;2023-09-19T03:21:09;2.10;;;1.10;;
77733;SDS011;66902;41.720;44.796;2023-09-19T03:23:44;4.40;;;1.20;;
77733;SDS011;66902;41.720;44.796;2023-09-19T03:26:19;3.00;;;1.40;;
77733;SDS011;66902;41.720;44.796;2023-09-19T03:28:53;1.60;;;1.30;;
77733;SDS011;66902;41.720;44.796;2023-09-19T03:31:28;1.40;;;0.90;;
77733;SDS011;66902;41.720;44.796;2023-09-19T03:34:03;10.00;;;1.20;;
77733;SDS011;66902;41.720;44.796;2023-09-19T03:36:37;3.20;;;1.00;;
77733;SDS011;66902;41.720;44.796;2023-09-19T03:39:12;3.80;;;1.60;;
77733;SDS011;66902;41.720;44.796;2023-09-19T03:41:46;2.80;;;1.00;;
77733;SDS011;66902;41.720;44.796;2023-09-19T03:44:21;4.10;;;1.00;;
77733;SDS011;66902;41.720;44.796;2023-09-19T03:46:55;5.30;;;1.20;;
77733;SDS011;66902;41.720;44.796;2023-09-19T03:49:29;3.10;;;1.30;;
77733;SDS011;66902;41.720;44.796;2023-09-19T03:52:04;3.40;;;1.10;;
77733;SDS011;66902;41.720;44.796;2023-09-19T03:54:38;3.60;;;1.20;;
77733;SDS011;66902;41.720;44.796;2023-09-19T03:57:14;2.50;;;0.80;;
77733;SDS011;66902;41.720;44.796;2023-09-19T03:59:51;3.90;;;0.90;;
77733;SDS011;66902;41.720;44.796;2023-09-19T04:02:26;3.80;;;2.30;;
77733;SDS011;66902;41.720;44.796;2023-09-19T04:05:03;4.50;;;2.50;;
77733;SDS011;66902;41.720;44.796;2023-09-19T04:07:38;7.40;;;3.10;;
77733;SDS011;66902;41.720;44.796;2023-09-19T04:10:13;1.90;;;1.30;;
77733;SDS011;66902;41.720;44.796;2023-09-19T04:12:54;3.80;;;1.70;;
77733;SDS011;66902;41.720;44.796;2023-09-19T04:15:28;2.90;;;1.60;;
77733;SDS011;66902;41.720;44.796;2023-09-19T04:18:02;2.10;;;1.70;;
77733;SDS011;66902;41.720;44.796;2023-09-19T04:20:37;4.50;;;1.50;;
77733;SDS011;66902;41.720;44.796;2023-09-19T04:23:11;2.30;;;1.80;;
77733;SDS011;66902;41.720;44.796;2023-09-19T04:25:46;3.10;;;2.30;;
77733;SDS011;66902;41.720;44.796;2023-09-19T04:28:20;8.10;;;3.40;;
77733;SDS011;66902;41.720;44.796;2023-09-19T04:30:55;4.80;;;3.60;;
77733;SDS011;66902;41.720;44.796;2023-09-19T04:33:30;5.60;;;2.40;;
77733;SDS011;66902;41.720;44.796;2023-09-19T04:36:05;3.90;;;2.40;;
77733;SDS011;66902;41.720;44.796;2023-09-19T04:39:00;2.70;;;2.10;;
77733;SDS011;66902;41.720;44.796;2023-09-19T04:41:37;5.30;;;4.60;;
77733;SDS011;66902;41.720;44.796;2023-09-19T04:44:11;2.60;;;2.20;;
77733;SDS011;66902;41.720;44.796;2023-09-19T04:46:45;8.10;;;2.30;;
77733;SDS011;66902;41.720;44.796;2023-09-19T04:49:22;3.10;;;1.50;;
77733;SDS011;66902;41.720;44.796;2023-09-19T04:51:56;8.80;;;3.40;;
77733;SDS011;66902;41.720;44.796;2023-09-19T04:54:31;4.10;;;2.50;;
77733;SDS011;66902;41.720;44.796;2023-09-19T04:57:05;9.60;;;3.60;;
77733;SDS011;66902;41.720;44.796;2023-09-19T04:59:39;2.80;;;2.30;;
77733;SDS011;66902;41.720;44.796;2023-09-19T05:02:13;6.70;;;2.00;;
77733;SDS011;66902;41.720;44.796;2023-09-19T05:04:47;4.60;;;1.50;;
77733;SDS011;66902;41.720;44.796;2023-09-19T05:07:24;2.50;;;1.40;;
77733;SDS011;66902;41.720;44.796;2023-09-19T05:09:58;5.60;;;2.10;;
77733;SDS011;66902;41.720;44.796;2023-09-19T05:12:31;6.00;;;1.70;;
77733;SDS011;66902;41.720;44.796;2023-09-19T05:15:06;6.70;;;1.70;;
77733;SDS011;66902;41.720;44.796;2023-09-19T05:17:41;2.70;;;1.20;;
77733;SDS011;66902;41.720;44.796;2023-09-19T05:20:16;5.60;;;1.90;;
77733;SDS011;66902;41.720;44.796;2023-09-19T05:22:59;5.60;;;4.20;;
77733;SDS011;66902;41.720;44.796;2023-09-19T05:25:34;4.90;;;3.60;;
77733;SDS011;66902;41.720;44.796;2023-09-19T05:28:10;3.60;;;2.20;;
77733;SDS011;66902;41.720;44.796;2023-09-19T05:30:45;10.00;;;2.00;;
77733;SDS011;66902;41.720;44.796;2023-09-19T05:33:19;6.20;;;3.10;;
77733;SDS011;66902;41.720;44.796;2023-09-19T05:35:54;4.90;;;1.70;;
77733;SDS011;66902;41.720;44.796;2023-09-19T05:38:28;4.60;;;2.20;;
77733;SDS011;66902;41.720;44.796;2023-09-19T05:41:02;6.20;;;3.20;;
77733;SDS011;66902;41.720;44.796;2023-09-19T05:43:37;3.80;;;3.10;;
77733;SDS011;66902;41.720;44.796;2023-09-19T05:46:12;4.00;;;2.10;;
77733;SDS011;66902;41.720;44.796;2023-09-19T05:48:47;7.60;;;3.80;;
77733;SDS011;66902;41.720;44.796;2023-09-19T05:51:21;5.00;;;2.90;;
77733;SDS011;66902;41.720;44.796;2023-09-19T05:53:59;6.10;;;4.10;;
77733;SDS011;66902;41.720;44.796;2023-09-19T05:56:36;4.50;;;2.40;;
77733;SDS011;66902;41.720;44.796;2023-09-19T05:59:09;8.00;;;5.60;;
77733;SDS011;66902;41.720;44.796;2023-09-19T06:01:45;5.90;;;3.10;;
77733;SDS011;66902;41.720;44.796;2023-09-19T06:04:21;4.40;;;3.30;;
77733;SDS011;66902;41.720;44.796;2023-09-19T06:06:56;4.30;;;1.60;;
77733;SDS011;66902;41.720;44.796;2023-09-19T06:09:30;4.60;;;2.40;;
77733;SDS011;66902;41.720;44.796;2023-09-19T06:12:05;8.50;;;2.50;;
77733;SDS011;66902;41.720;44.796;2023-09-19T06:14:40;5.60;;;2.40;;
77733;SDS011;66902;41.720;44.796;2023-09-19T06:17:15;8.10;;;4.50;;
77733;SDS011;66902;41.720;44.796;2023-09-19T06:19:51;6.70;;;1.80;;
77733;SDS011;66902;41.720;44.796;2023-09-19T06:22:26;6.10;;;3.00;;
77733;SDS011;66902;41.720;44.796;2023-09-19T06:25:00;7.10;;;5.20;;
77733;SDS011;66902;41.720;44.796;2023-09-19T06:27:37;4.60;;;2.30;;
77733;SDS011;66902;41.720;44.796;2023-09-19T06:30:13;5.40;;;1.90;;
77733;SDS011;66902;41.720;44.796;2023-09-19T06:32:48;8.00;;;1.40;;
77733;SDS011;66902;41.720;44.796;2023-09-19T06:35:23;3.60;;;2.10;;
77733;SDS011;66902;41.720;44.796;2023-09-19T06:37:58;3.90;;;2.50;;
77733;SDS011;66902;41.720;44.796;2023-09-19T06:40:34;3.20;;;2.20;;
77733;SDS011;66902;41.720;44.796;2023-09-19T06:43:09;2.60;;;1.40;;
77733;SDS011;66902;41.720;44.796;2023-09-19T06:45:44;9.30;;;1.90;;
77733;SDS011;66902;41.720;44.796;2023-09-19T06:48:21;3.70;;;1.60;;
77733;SDS011;66902;41.720;44.796;2023-09-19T06:50:56;1.50;;;1.20;;
77733;SDS011;66902;41.720;44.796;2023-09-19T06:53:32;4.50;;;1.10;;
77733;SDS011;66902;41.720;44.796;2023-09-19T06:56:07;5.60;;;1.60;;
77733;SDS011;66902;41.720;44.796;2023-09-19T06:58:41;8.00;;;2.50;;
77733;SDS011;66902;41.720;44.796;2023-09-19T07:01:16;2.30;;;1.50;;
77733;SDS011;66902;41.720;44.796;2023-09-19T07:03:50;2.10;;;1.20;;
77733;SDS011;66902;41.720;44.796;2023-09-19T07:06:26;3.30;;;1.70;;
77733;SDS011;66902;41.720;44.796;2023-09-19T07:09:00;6.50;;;2.20;;
77733;SDS011;66902;41.720;44.796;2023-09-19T07:11:34;3.40;;;1.20;;
77733;SDS011;66902;41.720;44.796;2023-09-19T07:14:09;6.50;;;1.60;;
77733;SDS011;66902;41.720;44.796;2023-09-19T07:16:43;2.00;;;1.30;;
77733;SDS011;66902;41.720;44.796;2023-09-19T07:19:17;5.00;;;1.60;;
77733;SDS011;66902;41.720;44.796;2023-09-19T07:21:51;2.50;;;1.10;;
77733;SDS011;66902;41.720;44.796;2023-09-19T07:24:25;1.70;;;0.90;;
77733;SDS011;66902;41.720;44.796;2023-09-19T07:27:00;2.30;;;1.00;;
77733;SDS011;66902;41.720;44.796;2023-09-19T07:29:35;2.60;;;1.00;;
77733;SDS011;66902;41.720;44.796;2023-09-19T07:32:10;2.40;;;0.90;;
77733;SDS011;66902;41.720;44.796;2023-09-19T07:34:44;6.20;;;1.30;;
77733;SDS011;66902;41.720;44.796;2023-09-19T07:37:19;2.50;;;0.70;;
77733;SDS011;66902;41.720;44.796;2023-09-19T07:39:56;2.00;;;1.40;;
77733;SDS011;66902;41.720;44.796;2023-09-19T07:42:30;5.90;;;1.90;;
77733;SDS011;66902;41.720;44.796;2023-09-19T07:45:08;2.00;;;1.30;;
77733;SDS011;66902;41.720;44.796;2023-09-19T07:47:45;1.90;;;1.00;;
77733;SDS011;66902;41.720;44.796;2023-09-19T07:50:20;5.80;;;1.10;;
77733;SDS011;66902;41.720;44.796;2023-09-19T07:55:29;4.80;;;1.40;;
77733;SDS011;66902;41.720;44.796;2023-09-19T07:58:05;2.70;;;1.20;;
77733;SDS011;66902;41.720;44.796;2023-09-19T08:00:39;6.40;;;1.00;;
77733;SDS011;66902;41.720;44.796;2023-09-19T08:03:13;5.40;;;1.00;;
77733;SDS011;66902;41.720;44.796;2023-09-19T08:05:48;1.60;;;1.00;;
77733;SDS011;66902;41.720;44.796;2023-09-19T08:08:23;3.40;;;0.60;;
77733;SDS011;66902;41.720;44.796;2023-09-19T08:10:57;4.30;;;0.90;;
77733;SDS011;66902;41.720;44.796;2023-09-19T08:13:32;2.10;;;1.20;;
77733;SDS011;66902;41.720;44.796;2023-09-19T08:16:07;2.80;;;1.10;;
77733;SDS011;66902;41.720;44.796;2023-09-19T08:21:20;2.30;;;1.50;;
77733;SDS011;66902;41.720;44.796;2023-09-19T08:23:56;3.30;;;0.90;;
77733;SDS011;66902;41.720;44.796;2023-09-19T08:26:31;5.00;;;1.40;;
77733;SDS011;66902;41.720;44.796;2023-09-19T08:29:08;4.50;;;1.40;;
77733;SDS011;66902;41.720;44.796;2023-09-19T08:31:45;4.40;;;1.80;;
77733;SDS011;66902;41.720;44.796;2023-09-19T08:34:21;1.60;;;0.90;;
77733;SDS011;66902;41.720;44.796;2023-09-19T08:36:58;1.90;;;1.30;;
77733;SDS011;66902;41.720;44.796;2023-09-19T08:39:33;4.50;;;1.20;;
77733;SDS011;66902;41.720;44.796;2023-09-19T08:42:09;2.20;;;0.90;;
77733;SDS011;66902;41.720;44.796;2023-09-19T08:44:44;1.40;;;1.00;;
77733;SDS011;66902;41.720;44.796;2023-09-19T08:47:23;3.40;;;1.40;;
77733;SDS011;66902;41.720;44.796;2023-09-19T08:50:09;2.00;;;0.60;;
77733;SDS011;66902;41.720;44.796;2023-09-19T08:52:46;3.60;;;1.10;;
77733;SDS011;66902;41.720;44.796;2023-09-19T08:55:23;4.70;;;0.80;;
77733;SDS011;66902;41.720;44.796;2023-09-19T08:58:01;1.60;;;0.90;;
77733;SDS011;66902;41.720;44.796;2023-09-19T09:00:36;6.70;;;1.90;;
77733;SDS011;66902;41.720;44.796;2023-09-19T09:03:13;3.50;;;1.80;;
77733;SDS011;66902;41.720;44.796;2023-09-19T09:05:50;3.20;;;1.10;;
77733;SDS011;66902;41.720;44.796;2023-09-19T09:08:25;1.90;;;1.40;;
77733;SDS011;66902;41.720;44.796;2023-09-19T09:11:01;5.50;;;1.10;;
77733;SDS011;66902;41.720;44.796;2023-09-19T09:13:38;2.50;;;1.10;;
77733;SDS011;66902;41.720;44.796;2023-09-19T09:16:13;2.60;;;1.40;;
77733;SDS011;66902;41.720;44.796;2023-09-19T09:18:50;6.60;;;1.50;;
77733;SDS011;66902;41.720;44.796;2023-09-19T09:21:26;2.40;;;1.00;;
77733;SDS011;66902;41.720;44.796;2023-09-19T09:27:05;2.20;;;1.50;;
77733;SDS011;66902;41.720;44.796;2023-09-19T09:29:45;3.50;;;1.70;;
77733;SDS011;66902;41.720;44.796;2023-09-19T09:32:22;5.90;;;2.70;;
77733;SDS011;66902;41.720;44.796;2023-09-19T09:35:01;6.30;;;2.00;;
77733;SDS011;66902;41.720;44.796;2023-09-19T09:37:40;4.00;;;1.90;;
77733;SDS011;66902;41.720;44.796;2023-09-19T09:40:19;3.00;;;1.80;;
77733;SDS011;66902;41.720;44.796;2023-09-19T09:43:09;2.60;;;1.50;;
77733;SDS011;66902;41.720;44.796;2023-09-19T09:46:11;2.60;;;1.40;;
77733;SDS011;66902;41.720;44.796;2023-09-19T09:49:05;2.00;;;1.40;;
77733;SDS011;66902;41.720;44.796;2023-09-19T09:52:05;5.30;;;3.40;;
77733;SDS011;66902;41.720;44.796;2023-09-19T09:54:59;5.30;;;1.70;;
77733;SDS011;66902;41.720;44.796;2023-09-19T09:57:36;7.00;;;1.80;;
77733;SDS011;66902;41.720;44.796;2023-09-19T10:00:14;3.70;;;1.40;;
77733;SDS011;66902;41.720;44.796;2023-09-19T10:02:51;1.30;;;0.80;;
77733;SDS011;66902;41.720;44.796;2023-09-19T10:05:26;0.80;;;0.50;;
77733;SDS011;66902;41.720;44.796;2023-09-19T10:08:13;4.40;;;1.00;;
77733;SDS011;66902;41.720;44.796;2023-09-19T10:10:50;5.20;;;0.70;;
77733;SDS011;66902;41.720;44.796;2023-09-19T10:13:36;2.10;;;1.30;;
77733;SDS011;66902;41.720;44.796;2023-09-19T10:16:13;1.30;;;0.90;;
77733;SDS011;66902;41.720;44.796;2023-09-19T10:18:49;1.20;;;0.90;;
77733;SDS011;66902;41.720;44.796;2023-09-19T10:21:30;2.80;;;1.40;;
77733;SDS011;66902;41.720;44.796;2023-09-19T10:24:07;2.10;;;0.90;;
77733;SDS011;66902;41.720;44.796;2023-09-19T10:26:42;1.80;;;0.60;;
77733;SDS011;66902;41.720;44.796;2023-09-19T10:29:21;2.90;;;0.80;;
77733;SDS011;66902;41.720;44.796;2023-09-19T10:31:59;2.40;;;1.20;;
77733;SDS011;66902;41.720;44.796;2023-09-19T10:34:38;2.30;;;1.30;;
77733;SDS011;66902;41.720;44.796;2023-09-19T10:37:19;4.70;;;1.30;;
77733;SDS011;66902;41.720;44.796;2023-09-19T10:39:56;1.80;;;1.40;;
77733;SDS011;66902;41.720;44.796;2023-09-19T10:42:32;10.50;;;1.40;;
77733;SDS011;66902;41.720;44.796;2023-09-19T10:45:10;3.00;;;1.30;;
77733;SDS011;66902;41.720;44.796;2023-09-19T10:47:46;2.50;;;1.20;;
77733;SDS011;66902;41.720;44.796;2023-09-19T10:50:23;1.20;;;1.00;;
77733;SDS011;66902;41.720;44.796;2023-09-19T10:52:58;2.30;;;1.10;;
77733;SDS011;66902;41.720;44.796;2023-09-19T10:55:38;1.70;;;1.00;;
77733;SDS011;66902;41.720;44.796;2023-09-19T10:58:15;1.90;;;1.20;;
77733;SDS011;66902;41.720;44.796;2023-09-19T11:00:59;2.10;;;1.00;;
77733;SDS011;66902;41.720;44.796;2023-09-19T11:03:41;2.40;;;1.20;;
77733;SDS011;66902;41.720;44.796;2023-09-19T11:06:20;3.00;;;1.30;;
77733;SDS011;66902;41.720;44.796;2023-09-19T11:08:59;1.70;;;1.00;;
77733;SDS011;66902;41.720;44.796;2023-09-19T11:11:53;2.30;;;1.50;;
77733;SDS011;66902;41.720;44.796;2023-09-19T11:14:32;2.60;;;1.60;;
77733;SDS011;66902;41.720;44.796;2023-09-19T11:20:23;3.70;;;1.20;;
77733;SDS011;66902;41.720;44.796;2023-09-19T11:23:25;2.10;;;1.60;;
77733;SDS011;66902;41.720;44.796;2023-09-19T11:26:02;2.90;;;1.70;;
77733;SDS011;66902;41.720;44.796;2023-09-19T11:28:39;1.90;;;0.90;;
77733;SDS011;66902;41.720;44.796;2023-09-19T11:40:13;3.20;;;2.00;;
77733;SDS011;66902;41.720;44.796;2023-09-19T11:42:50;2.30;;;1.70;;
77733;SDS011;66902;41.720;44.796;2023-09-19T11:48:37;3.40;;;1.20;;
77733;SDS011;66902;41.720;44.796;2023-09-19T11:51:20;3.20;;;0.90;;
77733;SDS011;66902;41.720;44.796;2023-09-19T11:53:59;2.10;;;1.30;;
77733;SDS011;66902;41.720;44.796;2023-09-19T11:56:37;6.20;;;3.20;;
77733;SDS011;66902;41.720;44.796;2023-09-19T11:59:13;1.60;;;1.10;;
77733;SDS011;66902;41.720;44.796;2023-09-19T12:01:53;4.00;;;2.20;;
77733;SDS011;66902;41.720;44.796;2023-09-19T12:04:35;3.10;;;1.10;;
77733;SDS011;66902;41.720;44.796;2023-09-19T12:07:10;5.10;;;1.70;;
77733;SDS011;66902;41.720;44.796;2023-09-19T12:09:47;7.60;;;1.70;;
77733;SDS011;66902;41.720;44.796;2023-09-19T12:12:22;2.70;;;1.10;;
77733;SDS011;66902;41.720;44.796;2023-09-19T12:14:57;2.90;;;1.80;;
77733;SDS011;66902;41.720;44.796;2023-09-19T12:17:36;6.10;;;1.70;;
77733;SDS011;66902;41.720;44.796;2023-09-19T12:20:11;2.40;;;2.20;;
77733;SDS011;66902;41.720;44.796;2023-09-19T12:22:49;2.80;;;1.50;;
77733;SDS011;66902;41.720;44.796;2023-09-19T12:25:24;3.00;;;1.70;;
77733;SDS011;66902;41.720;44.796;2023-09-19T12:27:58;6.50;;;1.70;;
77733;SDS011;66902;41.720;44.796;2023-09-19T12:30:33;2.60;;;1.90;;
77733;SDS011;66902;41.720;44.796;2023-09-19T12:33:07;1.60;;;1.10;;
77733;SDS011;66902;41.720;44.796;2023-09-19T12:35:55;4.40;;;1.60;;
77733;SDS011;66902;41.720;44.796;2023-09-19T12:38:28;4.40;;;1.60;;
77733;SDS011;66902;41.720;44.796;2023-09-19T12:43:39;4.50;;;3.50;;
77733;SDS011;66902;41.720;44.796;2023-09-19T12:46:13;1.40;;;1.00;;
77733;SDS011;66902;41.720;44.796;2023-09-19T12:51:49;1.80;;;0.90;;
77733;SDS011;66902;41.720;44.796;2023-09-19T12:54:38;2.70;;;1.40;;
77733;SDS011;66902;41.720;44.796;2023-09-19T12:57:24;3.40;;;2.80;;
77733;SDS011;66902;41.720;44.796;2023-09-19T12:59:59;2.60;;;1.40;;
77733;SDS011;66902;41.720;44.796;2023-09-19T13:02:36;2.00;;;1.30;;
77733;SDS011;66902;41.720;44.796;2023-09-19T13:05:09;2.80;;;1.90;;
77733;SDS011;66902;41.720;44.796;2023-09-19T13:07:45;3.00;;;1.30;;
77733;SDS011;66902;41.720;44.796;2023-09-19T13:10:20;2.70;;;1.80;;
77733;SDS011;66902;41.720;44.796;2023-09-19T13:12:54;2.20;;;1.40;;
77733;SDS011;66902;41.720;44.796;2023-09-19T13:15:28;2.60;;;1.40;;
77733;SDS011;66902;41.720;44.796;2023-09-19T13:18:03;1.60;;;1.20;;
77733;SDS011;66902;41.720;44.796;2023-09-19T13:20:44;3.90;;;1.70;;
77733;SDS011;66902;41.720;44.796;2023-09-19T13:23:41;5.20;;;1.20;;
77733;SDS011;66902;41.720;44.796;2023-09-19T13:26:17;5.00;;;1.50;;
77733;SDS011;66902;41.720;44.796;2023-09-19T13:28:52;2.20;;;1.90;;
77733;SDS011;66902;41.720;44.796;2023-09-19T13:31:27;3.90;;;2.40;;
77733;SDS011;66902;41.720;44.796;2023-09-19T13:34:04;5.30;;;2.30;;
77733;SDS011;66902;41.720;44.796;2023-09-19T13:36:40;8.60;;;5.20;;
77733;SDS011;66902;41.720;44.796;2023-09-19T13:39:20;6.30;;;2.60;;
77733;SDS011;66902;41.720;44.796;2023-09-19T13:41:58;3.60;;;2.90;;
77733;SDS011;66902;41.720;44.796;2023-09-19T13:44:35;5.10;;;2.40;;
77733;SDS011;66902;41.720;44.796;2023-09-19T13:47:10;2.10;;;1.20;;
77733;SDS011;66902;41.720;44.796;2023-09-19T13:49:47;3.50;;;1.80;;
77733;SDS011;66902;41.720;44.796;2023-09-19T13:52:23;4.00;;;1.20;;
77733;SDS011;66902;41.720;44.796;2023-09-19T13:55:02;2.60;;;1.30;;
77733;SDS011;66902;41.720;44.796;2023-09-19T13:57:39;5.00;;;2.00;;
77733;SDS011;66902;41.720;44.796;2023-09-19T14:00:16;4.50;;;3.00;;
77733;SDS011;66902;41.720;44.796;2023-09-19T14:02:51;3.90;;;2.30;;
77733;SDS011;66902;41.720;44.796;2023-09-19T14:05:27;6.30;;;2.40;;
77733;SDS011;66902;41.720;44.796;2023-09-19T14:08:05;3.60;;;1.90;;
77733;SDS011;66902;41.720;44.796;2023-09-19T14:10:39;5.80;;;2.50;;
77733;SDS011;66902;41.720;44.796;2023-09-19T14:13:19;6.30;;;2.80;;
77733;SDS011;66902;41.720;44.796;2023-09-19T14:15:56;3.50;;;2.20;;
77733;SDS011;66902;41.720;44.796;2023-09-19T14:18:36;8.30;;;4.80;;
77733;SDS011;66902;41.720;44.796;2023-09-19T14:21:11;3.70;;;3.10;;
77733;SDS011;66902;41.720;44.796;2023-09-19T14:23:45;6.60;;;2.90;;
77733;SDS011;66902;41.720;44.796;2023-09-19T14:26:21;7.40;;;2.60;;
77733;SDS011;66902;41.720;44.796;2023-09-19T14:28:56;4.10;;;2.80;;
77733;SDS011;66902;41.720;44.796;2023-09-19T14:31:32;5.20;;;2.10;;
77733;SDS011;66902;41.720;44.796;2023-09-19T14:34:10;3.50;;;2.70;;
77733;SDS011;66902;41.720;44.796;2023-09-19T14:36:48;4.60;;;3.30;;
77733;SDS011;66902;41.720;44.796;2023-09-19T14:39:23;6.80;;;2.80;;
77733;SDS011;66902;41.720;44.796;2023-09-19T14:42:02;3.00;;;2.10;;
77733;SDS011;66902;41.720;44.796;2023-09-19T14:44:36;3.20;;;2.30;;
77733;SDS011;66902;41.720;44.796;2023-09-19T14:47:12;7.40;;;2.50;;
77733;SDS011;66902;41.720;44.796;2023-09-19T14:49:47;5.60;;;2.90;;
77733;SDS011;66902;41.720;44.796;2023-09-19T14:52:24;5.40;;;2.80;;
77733;SDS011;66902;41.720;44.796;2023-09-19T14:55:01;6.70;;;3.50;;
77733;SDS011;66902;41.720;44.796;2023-09-19T14:57:36;5.60;;;2.90;;
77733;SDS011;66902;41.720;44.796;2023-09-19T15:00:13;6.90;;;3.30;;
77733;SDS011;66902;41.720;44.796;2023-09-19T15:02:49;5.40;;;3.00;;
77733;SDS011;66902;41.720;44.796;2023-09-19T15:05:26;5.40;;;2.60;;
77733;SDS011;66902;41.720;44.796;2023-09-19T15:08:01;5.70;;;2.80;;
77733;SDS011;66902;41.720;44.796;2023-09-19T15:10:38;6.30;;;2.80;;
77733;SDS011;66902;41.720;44.796;2023-09-19T15:13:13;3.80;;;2.40;;
77733;SDS011;66902;41.720;44.796;2023-09-19T15:18:23;5.80;;;2.90;;
77733;SDS011;66902;41.720;44.796;2023-09-19T15:21:00;6.80;;;4.30;;
77733;SDS011;66902;41.720;44.796;2023-09-19T15:23:34;8.10;;;4.10;;
77733;SDS011;66902;41.720;44.796;2023-09-19T15:26:09;10.40;;;5.60;;
77733;SDS011;66902;41.720;44.796;2023-09-19T15:28:44;7.40;;;4.90;;
77733;SDS011;66902;41.720;44.796;2023-09-19T15:31:21;9.90;;;4.10;;
77733;SDS011;66902;41.720;44.796;2023-09-19T15:33:58;6.20;;;4.20;;
77733;SDS011;66902;41.720;44.796;2023-09-19T15:36:34;8.30;;;6.80;;
77733;SDS011;66902;41.720;44.796;2023-09-19T15:39:09;7.50;;;4.60;;
77733;SDS011;66902;41.720;44.796;2023-09-19T15:41:47;5.50;;;4.30;;
77733;SDS011;66902;41.720;44.796;2023-09-19T15:44:23;7.50;;;5.10;;
77733;SDS011;66902;41.720;44.796;2023-09-19T15:46:58;5.20;;;3.70;;
77733;SDS011;66902;41.720;44.796;2023-09-19T15:49:34;6.20;;;4.60;;
77733;SDS011;66902;41.720;44.796;2023-09-19T15:52:11;13.20;;;4.90;;
77733;SDS011;66902;41.720;44.796;2023-09-19T15:54:46;7.80;;;4.70;;
77733;SDS011;66902;41.720;44.796;2023-09-19T15:57:22;5.70;;;3.50;;
77733;SDS011;66902;41.720;44.796;2023-09-19T16:00:00;6.30;;;2.80;;
77733;SDS011;66902;41.720;44.796;2023-09-19T16:02:43;5.70;;;3.60;;
77733;SDS011;66902;41.720;44.796;2023-09-19T16:05:20;4.80;;;3.60;;